Time;durP1;ratioP1;P1;durP2;ratioP2;P2;SDS_P1;SDS_P2;PMS_P1;PMS_P2;Temp;Humidity;BMP_temperature;BMP_pressure;BME280_temperature;BME280_humidity;BME280_pressure;Samples;Min_cycle;Max_cycle;Signal;HPM_P1;HPM_P2
2022/06/13 00:00:15;;;;;;;;;;;16.20;70.80;;;;;;5048503;28;20264;-57
2022/06/13 00:02:40;;;;;;;;;;;16.10;70.80;;;;;;5048581;28;20411;-58
2022/06/13 00:05:07;;;;;;;;;;;16.10;71.70;;;;;;5049262;28;19958;-57
2022/06/13 00:07:33;;;;;;;;;;;16.00;71.40;;;;;;5048702;28;19920;-58
2022/06/13 00:09:59;;;;;;;;;;;16.00;72.70;;;;;;5049591;28;20360;-58
2022/06/13 00:12:28;;;;;;;;;;;16.00;72.30;;;;;;5048553;28;19913;-55
2022/06/13 00:14:54;;;;;;;;;;;16.00;72.80;;;;;;5042417;28;19917;-58
2022/06/13 00:17:19;;;;;;;;;;;16.00;72.60;;;;;;5048374;28;20345;-58
2022/06/13 00:19:45;;;;;;;;;;;15.90;73.10;;;;;;5049485;28;19917;-59
2022/06/13 00:22:11;;;;;;;;;;;15.90;72.80;;;;;;5032442;28;19921;-58
2022/06/13 00:24:36;;;;;;;;;;;15.80;73.00;;;;;;5048529;28;19912;-56
2022/06/13 00:27:02;;;;;;;;;;;15.80;73.30;;;;;;5049173;28;19995;-57
2022/06/13 00:29:28;;;;;;;;;;;15.80;73.50;;;;;;5048644;28;19913;-53
2022/06/13 00:31:53;;;;;;;;;;;15.80;74.00;;;;;;5034358;28;19909;-55
2022/06/13 00:34:19;;;;;;;;;;;15.80;74.60;;;;;;5053288;28;20367;-56
2022/06/13 00:36:44;;;;;;;;;;;15.70;73.90;;;;;;5053218;28;20363;-55
2022/06/13 00:39:10;;;;;;;;;;;15.70;75.10;;;;;;5052122;28;19924;-56
2022/06/13 00:41:36;;;;;;;;;;;15.70;75.10;;;;;;5052988;28;19916;-55
2022/06/13 00:44:07;;;;;;;;;;;15.60;75.20;;;;;;5052365;28;20003;-57
2022/06/13 00:46:34;;;;;;;;;;;15.60;76.40;;;;;;5052462;28;20554;-51
2022/06/13 00:49:11;;;;;;;;;;;15.60;76.40;;;;;;5053295;28;19912;-56
2022/06/13 00:51:40;;;;;;;;;;;15.50;75.90;;;;;;5051879;28;20011;-56
2022/06/13 00:54:06;;;;;;;;;;;15.60;75.80;;;;;;5034497;28;19916;-57
2022/06/13 00:56:36;;;;;;;;;;;15.60;75.40;;;;;;5051961;28;19916;-57
2022/06/13 00:59:03;;;;;;;;;;;15.60;75.50;;;;;;5052279;28;19919;-57
2022/06/13 01:01:30;;;;;;;;;;;15.50;76.70;;;;;;5052289;28;19931;-61
2022/06/13 01:03:57;;;;;;;;;;;15.50;77.40;;;;;;5035200;28;20365;-55
2022/06/13 01:06:25;;;;;;;;;;;15.40;76.80;;;;;;5051807;28;20107;-57
2022/06/13 01:08:50;;;;;;;;;;;15.50;76.40;;;;;;5052463;28;19913;-58
2022/06/13 01:11:17;;;;;;;;;;;15.50;77.60;;;;;;5034073;28;19959;-57
2022/06/13 01:14:02;;;;;;;;;;;15.50;76.40;;;;;;5052094;28;19912;-58
2022/06/13 01:16:33;;;;;;;;;;;15.50;76.30;;;;;;5052233;28;19908;-54
2022/06/13 01:19:04;;;;;;;;;;;15.50;77.90;;;;;;5052809;28;19913;-57
2022/06/13 01:21:40;;;;;;;;;;;15.50;76.70;;;;;;5051583;28;19920;-57
2022/06/13 01:24:24;;;;;;;;;;;15.50;76.80;;;;;;5051512;28;19913;-55
2022/06/13 01:26:52;;;;;;;;;;;15.50;76.90;;;;;;5051205;28;20372;-57
2022/06/13 01:29:33;;;;;;;;;;;15.40;76.50;;;;;;5051999;28;19960;-56
2022/06/13 01:32:10;;;;;;;;;;;15.40;77.00;;;;;;5056954;28;19909;-55
2022/06/13 01:34:39;;;;;;;;;;;15.40;77.20;;;;;;5051337;28;19943;-56
2022/06/13 01:37:11;;;;;;;;;;;15.30;78.50;;;;;;5052184;28;19909;-56
2022/06/13 01:39:55;;;;;;;;;;;15.30;77.60;;;;;;5051412;28;20363;-56
2022/06/13 01:42:33;;;;;;;;;;;15.30;78.20;;;;;;5050731;28;20022;-57
2022/06/13 01:44:58;;;;;;;;;;;15.30;77.70;;;;;;5051926;28;19912;-55
2022/06/13 01:47:34;;;;;;;;;;;15.30;77.30;;;;;;5051248;28;20295;-56
2022/06/13 01:49:59;;;;;;;;;;;15.30;77.30;;;;;;5051298;28;19909;-56
2022/06/13 01:52:33;;;;;;;;;;;15.30;77.40;;;;;;5051069;28;20000;-56
2022/06/13 01:55:12;;;;;;;;;;;15.30;78.40;;;;;;5052509;28;19917;-55
2022/06/13 01:57:43;;;;;;;;;;;15.20;79.10;;;;;;5051657;28;19913;-56
2022/06/13 02:00:13;;;;;;;;;;;15.20;79.00;;;;;;5050791;28;19956;-57
2022/06/13 02:02:42;;;;;;;;;;;15.20;79.30;;;;;;5050354;28;20473;-57
2022/06/13 02:05:29;;;;;;;;;;;15.20;78.30;;;;;;5051222;28;19919;-56
2022/06/13 02:08:00;;;;;;;;;;;15.20;79.90;;;;;;5050967;28;20307;-56
2022/06/13 02:10:29;;;;;;;;;;;15.20;78.70;;;;;;5050882;28;20268;-56
2022/06/13 02:12:58;;;;;;;;;;;15.10;80.30;;;;;;5052102;28;19952;-54
2022/06/13 02:15:27;;;;;;;;;;;15.10;80.40;;;;;;5050602;28;19959;-51
2022/06/13 02:17:56;;;;;;;;;;;15.10;79.60;;;;;;5050435;28;19939;-56
2022/06/13 02:20:27;;;;;;;;;;;15.10;80.10;;;;;;5032618;28;19959;-56
2022/06/13 02:23:04;;;;;;;;;;;15.00;81.90;;;;;;5050320;28;19927;-57
2022/06/13 02:25:33;;;;;;;;;;;15.00;81.20;;;;;;5048734;28;19916;-56
2022/06/13 02:28:07;;;;;;;;;;;15.00;81.50;;;;;;5033598;28;20007;-54
2022/06/13 02:30:35;;;;;;;;;;;15.00;81.60;;;;;;5050731;28;20415;-56
2022/06/13 02:33:06;;;;;;;;;;;15.00;81.80;;;;;;5050010;28;19917;-56
2022/06/13 02:35:35;;;;;;;;;;;15.00;82.20;;;;;;5050281;28;19912;-55
2022/06/13 02:38:02;;;;;;;;;;;15.00;81.40;;;;;;5050728;28;19912;-55
2022/06/13 02:40:32;;;;;;;;;;;15.00;82.50;;;;;;5050262;28;19997;-55
2022/06/13 02:43:01;;;;;;;;;;;15.00;82.40;;;;;;5051130;28;20287;-53
2022/06/13 02:45:30;;;;;;;;;;;14.90;82.00;;;;;;5032751;28;19923;-50
2022/06/13 02:48:05;;;;;;;;;;;15.00;81.90;;;;;;5050217;28;19936;-55
2022/06/13 02:50:45;;;;;;;;;;;14.90;82.70;;;;;;5050066;28;19916;-55
2022/06/13 02:53:33;;;;;;;;;;;14.90;82.20;;;;;;5049261;28;19917;-55
2022/06/13 02:55:58;;;;;;;;;;;14.90;82.00;;;;;;5050127;28;19917;-56
2022/06/13 02:58:31;;;;;;;;;;;14.90;82.70;;;;;;5032349;28;19916;-51
2022/06/13 03:01:07;;;;;;;;;;;14.90;82.60;;;;;;5050555;28;19920;-55
2022/06/13 03:03:49;;;;;;;;;;;14.90;83.10;;;;;;5049760;28;19916;-53
2022/06/13 03:06:19;;;;;;;;;;;14.90;82.90;;;;;;5032077;28;19913;-56
2022/06/13 03:08:49;;;;;;;;;;;14.80;83.10;;;;;;5049288;28;19920;-55
2022/06/13 03:11:34;;;;;;;;;;;14.90;83.50;;;;;;5049922;28;20307;-55
2022/06/13 03:14:06;;;;;;;;;;;14.80;83.10;;;;;;5049743;28;20012;-56
2022/06/13 03:16:42;;;;;;;;;;;14.90;82.20;;;;;;5049900;28;19988;-54
2022/06/13 03:19:11;;;;;;;;;;;14.80;83.80;;;;;;5050882;28;19916;-55
2022/06/13 03:21:40;;;;;;;;;;;14.80;83.60;;;;;;5049206;28;20398;-53
2022/06/13 03:24:18;;;;;;;;;;;14.80;85.10;;;;;;5049215;28;19917;-56
2022/06/13 03:26:48;;;;;;;;;;;14.70;86.50;;;;;;5032136;28;20700;-56
2022/06/13 03:29:19;;;;;;;;;;;14.70;84.60;;;;;;5049589;28;20263;-55
2022/06/13 03:31:48;;;;;;;;;;;14.70;84.70;;;;;;5049597;28;20388;-56
2022/06/13 03:34:16;;;;;;;;;;;14.70;84.50;;;;;;5050288;28;19920;-56
2022/06/13 03:37:02;;;;;;;;;;;14.70;84.40;;;;;;5049551;28;19917;-55
2022/06/13 03:39:40;;;;;;;;;;;14.60;85.40;;;;;;5049072;28;19916;-56
2022/06/13 03:42:16;;;;;;;;;;;14.60;86.90;;;;;;5049377;28;19928;-54
2022/06/13 03:44:55;;;;;;;;;;;14.60;85.00;;;;;;5049422;28;19916;-54
2022/06/13 03:47:24;;;;;;;;;;;14.60;85.70;;;;;;5049887;28;19999;-55
2022/06/13 03:49:56;;;;;;;;;;;14.60;85.40;;;;;;5049457;28;20467;-56
2022/06/13 03:52:23;;;;;;;;;;;14.60;85.60;;;;;;5049207;28;20260;-56
2022/06/13 03:54:54;;;;;;;;;;;14.70;85.50;;;;;;5050278;28;20679;-55
2022/06/13 03:57:24;;;;;;;;;;;14.60;85.70;;;;;;5049606;28;20295;-57
2022/06/13 03:59:56;;;;;;;;;;;14.60;87.50;;;;;;5049505;28;19948;-52
2022/06/13 04:02:24;;;;;;;;;;;14.50;86.40;;;;;;5048676;28;20350;-56
2022/06/13 04:04:51;;;;;;;;;;;14.50;88.10;;;;;;5043305;28;19920;-57
2022/06/13 04:07:18;;;;;;;;;;;14.50;87.80;;;;;;5052780;28;19909;-56
2022/06/13 04:09:45;;;;;;;;;;;14.50;86.80;;;;;;5053967;28;19963;-54
2022/06/13 04:12:11;;;;;;;;;;;14.60;87.10;;;;;;5055588;28;19946;-55
2022/06/13 04:14:42;;;;;;;;;;;14.60;87.40;;;;;;5052763;28;19913;-58
2022/06/13 04:17:18;;;;;;;;;;;14.60;86.70;;;;;;5046366;28;19912;-55
2022/06/13 04:20:02;;;;;;;;;;;14.60;87.20;;;;;;5047748;28;19912;-55
2022/06/13 04:22:28;;;;;;;;;;;14.60;87.60;;;;;;5051094;28;19917;-56
2022/06/13 04:25:04;;;;;;;;;;;14.60;87.10;;;;;;5053829;28;19909;-56
2022/06/13 04:27:50;;;;;;;;;;;14.60;88.40;;;;;;5052883;28;19927;-56
2022/06/13 04:30:18;;;;;;;;;;;14.60;88.20;;;;;;5052457;28;19952;-56
2022/06/13 04:32:51;;;;;;;;;;;14.60;87.50;;;;;;5052497;28;19913;-57
2022/06/13 04:35:17;;;;;;;;;;;14.60;87.80;;;;;;5046530;28;19968;-56
2022/06/13 04:37:43;;;;;;;;;;;14.60;87.60;;;;;;5053021;28;19913;-55
2022/06/13 04:40:12;;;;;;;;;;;14.70;87.80;;;;;;5053948;28;19913;-55
2022/06/13 04:42:39;;;;;;;;;;;14.70;87.90;;;;;;5052307;28;20379;-56
2022/06/13 04:45:14;;;;;;;;;;;14.70;87.80;;;;;;5053087;28;19912;-54
2022/06/13 04:47:41;;;;;;;;;;;14.80;88.00;;;;;;5052303;28;19936;-51
2022/06/13 04:50:06;;;;;;;;;;;14.80;88.10;;;;;;5052034;28;20379;-55
2022/06/13 04:52:34;;;;;;;;;;;14.80;88.60;;;;;;5052287;28;19908;-56
2022/06/13 04:55:01;;;;;;;;;;;14.80;89.40;;;;;;5053564;28;19916;-56
2022/06/13 04:57:27;;;;;;;;;;;14.80;88.30;;;;;;5051924;28;19919;-55
2022/06/13 04:59:54;;;;;;;;;;;14.90;88.70;;;;;;5051932;28;19946;-55
2022/06/13 05:02:23;;;;;;;;;;;14.90;89.30;;;;;;5051841;28;19924;-55
2022/06/13 05:04:49;;;;;;;;;;;14.90;88.80;;;;;;5051423;28;20015;-56
2022/06/13 05:07:16;;;;;;;;;;;14.90;89.20;;;;;;5051860;28;19956;-56
2022/06/13 05:09:46;;;;;;;;;;;15.00;88.70;;;;;;5051807;28;19909;-57
2022/06/13 05:12:15;;;;;;;;;;;15.00;88.60;;;;;;5051323;28;19940;-57
2022/06/13 05:14:46;;;;;;;;;;;15.10;88.40;;;;;;5051193;28;19913;-56
2022/06/13 05:17:31;;;;;;;;;;;15.10;88.80;;;;;;5050818;28;20264;-56
2022/06/13 05:20:07;;;;;;;;;;;15.10;88.30;;;;;;5051317;28;19912;-56
2022/06/13 05:22:49;;;;;;;;;;;15.20;88.70;;;;;;5051417;28;20391;-56
2022/06/13 05:25:26;;;;;;;;;;;15.20;88.70;;;;;;5051470;28;19913;-59
2022/06/13 05:27:53;;;;;;;;;;;15.20;89.70;;;;;;5052394;28;19909;-56
2022/06/13 05:30:19;;;;;;;;;;;15.30;89.50;;;;;;5050966;28;19920;-55
2022/06/13 05:32:45;;;;;;;;;;;15.30;89.30;;;;;;5050466;28;19916;-52
2022/06/13 05:35:15;;;;;;;;;;;15.30;89.30;;;;;;5051358;28;19943;-56
2022/06/13 05:37:41;;;;;;;;;;;15.40;89.70;;;;;;5051309;28;19917;-56
2022/06/13 05:40:12;;;;;;;;;;;15.40;89.10;;;;;;5051817;28;19916;-56
2022/06/13 05:42:37;;;;;;;;;;;15.40;89.20;;;;;;5050581;28;20014;-56
2022/06/13 05:45:03;;;;;;;;;;;15.50;89.40;;;;;;5050382;28;19975;-56
2022/06/13 05:47:28;;;;;;;;;;;15.50;90.00;;;;;;5050513;28;19928;-55
2022/06/13 05:49:54;;;;;;;;;;;15.40;89.90;;;;;;5044143;28;19916;-55
2022/06/13 05:52:19;;;;;;;;;;;15.50;90.00;;;;;;5051123;28;20284;-56
2022/06/13 05:54:45;;;;;;;;;;;15.50;89.80;;;;;;5051391;28;19910;-55
2022/06/13 05:57:11;;;;;;;;;;;15.50;90.10;;;;;;5050521;28;19932;-54
2022/06/13 05:59:36;;;;;;;;;;;15.50;90.30;;;;;;5050624;28;20631;-55
2022/06/13 06:02:02;;;;;;;;;;;15.50;90.40;;;;;;5049888;28;19929;-55
2022/06/13 06:04:27;;;;;;;;;;;15.50;90.50;;;;;;5050570;28;20394;-56
2022/06/13 06:06:53;;;;;;;;;;;15.50;90.30;;;;;;5051275;28;20015;-54
2022/06/13 06:09:18;;;;;;;;;;;15.50;90.50;;;;;;5050314;28;19912;-55
2022/06/13 06:11:44;;;;;;;;;;;15.50;90.70;;;;;;5050978;28;20401;-54
2022/06/13 06:14:09;;;;;;;;;;;15.60;90.60;;;;;;5051842;28;19913;-56
2022/06/13 06:16:35;;;;;;;;;;;15.60;90.80;;;;;;5032115;28;19928;-56
2022/06/13 06:19:00;;;;;;;;;;;15.60;90.80;;;;;;5051234;28;20387;-56
2022/06/13 06:21:26;;;;;;;;;;;15.60;91.10;;;;;;5050653;28;19920;-56
2022/06/13 06:23:51;;;;;;;;;;;15.70;90.90;;;;;;5050233;28;19920;-55
2022/06/13 06:26:22;;;;;;;;;;;15.70;90.80;;;;;;5050425;28;20270;-56
2022/06/13 06:28:48;;;;;;;;;;;15.80;90.60;;;;;;5049387;28;20327;-55
2022/06/13 06:31:13;;;;;;;;;;;15.80;91.00;;;;;;5050813;28;19931;-55
2022/06/13 06:33:39;;;;;;;;;;;15.80;90.80;;;;;;5050577;28;20004;-55
2022/06/13 06:36:04;;;;;;;;;;;15.90;90.80;;;;;;5050624;28;19921;-54
2022/06/13 06:38:30;;;;;;;;;;;15.80;91.10;;;;;;5050134;28;20000;-56
2022/06/13 06:40:55;;;;;;;;;;;15.90;91.10;;;;;;5050669;28;19920;-56
2022/06/13 06:43:21;;;;;;;;;;;15.90;91.10;;;;;;5050088;28;20003;-56
2022/06/13 06:45:47;;;;;;;;;;;15.90;90.90;;;;;;5050835;28;19904;-50
2022/06/13 06:48:13;;;;;;;;;;;15.90;90.80;;;;;;5046991;28;19983;-53
2022/06/13 06:50:41;;;;;;;;;;;16.00;91.10;;;;;;5051014;28;19913;-58
2022/06/13 06:53:06;;;;;;;;;;;16.00;91.00;;;;;;5050399;28;19917;-55
2022/06/13 07:01:15;;;;;;;;;;;16.00;91.00;;;;;;4982701;28;20401;-54
2022/06/13 07:03:41;;;;;;;;;;;16.00;91.10;;;;;;4966695;28;19922;-56
2022/06/13 07:06:07;;;;;;;;;;;16.00;91.00;;;;;;4967819;28;19968;-58
2022/06/13 07:08:33;;;;;;;;;;;16.10;91.00;;;;;;4967887;28;19914;-57
2022/06/13 07:11:53;;;;;;;;;;;16.10;91.10;;;;;;4967428;28;20037;-57
2022/06/13 07:13:45;;;;;;;;;;;16.20;91.10;;;;;;4965288;28;20063;-55
2022/06/13 07:16:11;;;;;;;;;;;16.20;90.90;;;;;;4967872;28;20369;-56
2022/06/13 07:18:36;;;;;;;;;;;16.30;90.90;;;;;;4968123;28;19953;-56
2022/06/13 07:21:02;;;;;;;;;;;16.30;90.80;;;;;;4984449;28;20032;-57
2022/06/13 07:23:27;;;;;;;;;;;16.30;91.20;;;;;;4967982;28;19926;-56
2022/06/13 07:25:53;;;;;;;;;;;16.40;90.90;;;;;;4968702;28;19915;-56
2022/06/13 07:28:18;;;;;;;;;;;16.40;90.80;;;;;;4969096;28;20298;-54
2022/06/13 07:30:44;;;;;;;;;;;16.50;90.80;;;;;;4963825;28;19948;-56
2022/06/13 07:33:09;;;;;;;;;;;16.50;90.80;;;;;;4966243;28;20435;-57
2022/06/13 07:35:35;;;;;;;;;;;16.50;90.70;;;;;;4973340;28;19935;-54
2022/06/13 07:38:19;;;;;;;;;;;16.60;90.70;;;;;;5006874;28;20431;-57
2022/06/13 07:40:45;;;;;;;;;;;16.60;90.70;;;;;;5012319;28;20443;-55
2022/06/13 07:43:31;;;;;;;;;;;16.60;90.40;;;;;;5012454;28;19928;-54
2022/06/13 07:45:59;;;;;;;;;;;16.60;90.30;;;;;;5010644;28;19914;-55
2022/06/13 07:48:26;;;;;;;;;;;16.70;90.30;;;;;;5011917;28;20007;-57
2022/06/13 07:50:52;;;;;;;;;;;16.70;90.20;;;;;;5009397;28;20777;-56
2022/06/13 07:53:17;;;;;;;;;;;16.80;90.20;;;;;;5011575;28;19967;-57
2022/06/13 07:55:43;;;;;;;;;;;16.90;90.10;;;;;;5010251;28;19917;-55
2022/06/13 07:58:19;;;;;;;;;;;16.90;89.70;;;;;;5011820;28;19918;-56
2022/06/13 08:00:46;;;;;;;;;;;16.90;89.50;;;;;;5015223;28;19925;-55
2022/06/13 08:03:20;;;;;;;;;;;17.00;89.50;;;;;;5051161;28;19924;-56
2022/06/13 08:05:46;;;;;;;;;;;17.00;89.50;;;;;;5050810;28;19975;-56
2022/06/13 08:08:11;;;;;;;;;;;17.00;89.30;;;;;;5050867;28;19920;-55
2022/06/13 08:10:37;;;;;;;;;;;17.10;89.40;;;;;;5051056;28;20039;-57
2022/06/13 08:13:03;;;;;;;;;;;17.20;89.20;;;;;;5051346;28;19919;-57
2022/06/13 08:15:28;;;;;;;;;;;17.20;88.70;;;;;;5051066;28;20007;-57
2022/06/13 08:17:55;;;;;;;;;;;17.20;88.70;;;;;;5050867;28;20348;-56
2022/06/13 08:20:21;;;;;;;;;;;17.30;88.40;;;;;;5050291;28;19920;-57
2022/06/13 08:22:47;;;;;;;;;;;17.30;88.50;;;;;;5051295;28;19930;-57
2022/06/13 08:25:32;;;;;;;;;;;17.30;88.10;;;;;;5051306;28;20387;-56
2022/06/13 08:27:59;;;;;;;;;;;17.40;87.80;;;;;;5049803;28;19970;-58
2022/06/13 08:30:25;;;;;;;;;;;17.30;87.60;;;;;;5049805;28;19917;-58
2022/06/13 08:32:51;;;;;;;;;;;17.40;86.30;;;;;;5050487;28;20024;-58
2022/06/13 08:35:17;;;;;;;;;;;17.40;86.40;;;;;;5049884;28;20023;-57
2022/06/13 08:37:42;;;;;;;;;;;17.40;85.90;;;;;;5032548;28;19948;-56
2022/06/13 08:40:09;;;;;;;;;;;17.40;86.30;;;;;;5051927;28;19940;-52
2022/06/13 08:42:45;;;;;;;;;;;17.50;86.40;;;;;;5049482;28;19952;-56
2022/06/13 08:45:15;;;;;;;;;;;17.50;86.00;;;;;;5050090;28;19923;-54
2022/06/13 08:47:41;;;;;;;;;;;17.60;86.10;;;;;;5030469;28;19937;-57
2022/06/13 08:50:28;;;;;;;;;;;17.60;86.10;;;;;;5050009;28;20304;-57
2022/06/13 08:52:54;;;;;;;;;;;17.70;83.80;;;;;;5048079;28;19913;-57
2022/06/13 08:55:25;;;;;;;;;;;17.70;83.50;;;;;;5049433;28;19913;-57
2022/06/13 08:57:55;;;;;;;;;;;17.70;83.90;;;;;;5051505;28;20334;-58
2022/06/13 09:00:22;;;;;;;;;;;17.70;84.00;;;;;;5046819;28;19951;-59
2022/06/13 09:03:19;;;;;;;;;;;17.80;84.10;;;;;;5048652;28;20427;-58
2022/06/13 09:05:50;;;;;;;;;;;17.80;84.50;;;;;;4961497;28;19937;-58
2022/06/13 09:08:15;;;;;;;;;;;18.00;84.80;;;;;;4957725;28;19918;-59
2022/06/13 09:10:43;;;;;;;;;;;18.00;83.40;;;;;;4961946;28;19946;-59
2022/06/13 09:13:12;;;;;;;;;;;18.00;81.80;;;;;;4964999;28;19921;-58
2022/06/13 09:15:43;;;;;;;;;;;18.00;82.40;;;;;;4962317;28;19914;-59
2022/06/13 09:18:14;;;;;;;;;;;18.00;82.10;;;;;;4964722;28;19918;-57
2022/06/13 09:20:53;;;;;;;;;;;18.00;82.60;;;;;;4966149;28;19989;-59
2022/06/13 09:23:19;;;;;;;;;;;18.10;82.40;;;;;;4962777;28;19978;-58
2022/06/13 09:25:59;;;;;;;;;;;18.10;81.50;;;;;;4957283;28;19914;-58
2022/06/13 09:28:28;;;;;;;;;;;18.10;81.30;;;;;;4961326;28;19964;-58
2022/06/13 09:30:59;;;;;;;;;;;18.10;81.80;;;;;;4963712;28;19915;-59
2022/06/13 09:33:32;;;;;;;;;;;18.20;81.20;;;;;;4961977;28;19918;-58
2022/06/13 09:35:59;;;;;;;;;;;18.30;80.70;;;;;;4962774;28;19941;-58
2022/06/13 09:38:28;;;;;;;;;;;18.20;79.70;;;;;;4962265;28;19937;-58
2022/06/13 09:41:02;;;;;;;;;;;18.30;78.50;;;;;;4988750;28;19958;-59
2022/06/13 09:43:48;;;;;;;;;;;18.20;77.90;;;;;;5048357;28;19928;-58
2022/06/13 09:46:29;;;;;;;;;;;18.20;78.00;;;;;;5049199;28;19917;-58
2022/06/13 09:49:01;;;;;;;;;;;18.30;76.70;;;;;;5049866;28;19913;-58
2022/06/13 09:51:26;;;;;;;;;;;18.30;77.60;;;;;;5048608;28;19919;-58
2022/06/13 09:53:54;;;;;;;;;;;18.30;76.80;;;;;;5048584;28;19917;-59
2022/06/13 09:56:26;;;;;;;;;;;18.30;77.80;;;;;;5048995;28;19920;-57
2022/06/13 09:59:11;;;;;;;;;;;18.40;76.70;;;;;;5049369;28;20003;-59
2022/06/13 10:01:56;;;;;;;;;;;18.40;74.30;;;;;;5047981;28;19929;-59
2022/06/13 10:04:29;;;;;;;;;;;18.40;75.40;;;;;;5047350;28;19917;-59
2022/06/13 10:07:18;;;;;;;;;;;18.50;74.70;;;;;;5049673;28;19921;-59
2022/06/13 10:10:03;;;;;;;;;;;18.60;74.70;;;;;;5034440;28;19958;-60
2022/06/13 10:12:47;;;;;;;;;;;18.60;74.80;;;;;;5047902;28;19913;-57
2022/06/13 10:15:31;;;;;;;;;;;18.60;75.10;;;;;;5046715;28;19920;-59
2022/06/13 10:18:12;;;;;;;;;;;18.70;75.20;;;;;;5044922;28;19917;-58
2022/06/13 10:20:51;;;;;;;;;;;18.70;75.00;;;;;;5048043;28;20001;-58
2022/06/13 10:23:20;;;;;;;;;;;18.80;74.60;;;;;;5047508;28;19966;-58
2022/06/13 10:25:45;;;;;;;;;;;18.80;74.40;;;;;;5030404;28;19917;-58
2022/06/13 10:28:14;;;;;;;;;;;18.90;75.30;;;;;;5049351;28;19919;-57
2022/06/13 10:30:39;;;;;;;;;;;18.90;74.70;;;;;;5047623;28;19976;-59
2022/06/13 10:33:10;;;;;;;;;;;18.90;74.00;;;;;;5047916;28;19917;-59
2022/06/13 10:35:50;;;;;;;;;;;18.90;74.10;;;;;;5047793;28;20613;-58
2022/06/13 10:38:25;;;;;;;;;;;19.00;74.60;;;;;;5049057;28;19913;-64
2022/06/13 10:40:50;;;;;;;;;;;19.00;73.80;;;;;;5049970;28;20314;-62
2022/06/13 10:43:16;;;;;;;;;;;19.00;73.30;;;;;;5050822;28;19928;-63
2022/06/13 10:45:42;;;;;;;;;;;19.00;74.00;;;;;;5050176;28;20383;-65
2022/06/13 10:48:19;;;;;;;;;;;19.00;74.50;;;;;;5049604;28;19923;-62
2022/06/13 10:50:50;;;;;;;;;;;19.00;74.00;;;;;;5050007;28;19913;-64
2022/06/13 10:53:19;;;;;;;;;;;19.00;72.80;;;;;;5049630;28;19913;-63
2022/06/13 10:55:46;;;;;;;;;;;19.10;72.00;;;;;;5050200;28;19982;-63
2022/06/13 10:58:21;;;;;;;;;;;19.10;72.20;;;;;;5051512;28;20291;-63
2022/06/13 11:01:04;;;;;;;;;;;19.10;72.20;;;;;;5050217;28;19920;-63
2022/06/13 11:03:30;;;;;;;;;;;19.20;70.80;;;;;;5049784;28;20392;-62
2022/06/13 11:06:01;;;;;;;;;;;19.20;71.30;;;;;;5050117;28;20012;-63
2022/06/13 11:08:27;;;;;;;;;;;19.20;69.80;;;;;;5049338;28;19920;-62
2022/06/13 11:10:57;;;;;;;;;;;19.20;71.20;;;;;;5049853;28;19916;-64
2022/06/13 11:13:30;;;;;;;;;;;19.20;71.40;;;;;;5050063;28;19917;-64
2022/06/13 11:24:23;;;;;;;;;;;19.30;70.90;;;;;;5050048;28;19970;-64
2022/06/13 11:29:35;;;;;;;;;;;19.40;70.30;;;;;;5049957;28;19966;-63
2022/06/13 11:32:02;;;;;;;;;;;19.40;70.00;;;;;;5049528;28;20487;-63
2022/06/13 11:34:28;;;;;;;;;;;19.40;69.00;;;;;;5050116;28;19913;-66
2022/06/13 11:37:02;;;;;;;;;;;19.60;67.90;;;;;;5049907;28;20363;-62
2022/06/13 11:39:32;;;;;;;;;;;19.60;69.10;;;;;;5049553;28;19912;-63
2022/06/13 11:41:58;;;;;;;;;;;19.70;68.00;;;;;;5049565;28;19960;-64
2022/06/13 11:44:24;;;;;;;;;;;19.80;67.70;;;;;;5049278;28;19956;-64
2022/06/13 11:46:50;;;;;;;;;;;19.80;68.20;;;;;;5051164;28;19913;-65
2022/06/13 11:49:15;;;;;;;;;;;19.80;67.90;;;;;;5050368;28;19913;-62
2022/06/13 11:51:53;;;;;;;;;;;19.90;68.50;;;;;;5049088;28;19909;-63
2022/06/13 11:54:42;;;;;;;;;;;19.90;69.20;;;;;;5049800;28;19913;-66
2022/06/13 11:57:26;;;;;;;;;;;20.00;68.00;;;;;;5038329;28;20288;-64
2022/06/13 11:59:54;;;;;;;;;;;20.00;67.50;;;;;;5049548;28;20000;-64
2022/06/13 12:02:23;;;;;;;;;;;20.00;67.30;;;;;;5031118;28;19924;-62
2022/06/13 12:04:49;;;;;;;;;;;20.00;67.70;;;;;;5046368;28;19936;-66
2022/06/13 12:07:23;;;;;;;;;;;20.00;67.50;;;;;;5032641;28;20375;-65
2022/06/13 12:09:53;;;;;;;;;;;20.00;66.30;;;;;;5049696;28;19912;-62
2022/06/13 12:12:18;;;;;;;;;;;20.10;67.10;;;;;;5048839;28;20333;-63
2022/06/13 12:14:44;;;;;;;;;;;20.20;67.20;;;;;;5049194;28;19916;-63
2022/06/13 12:17:10;;;;;;;;;;;20.20;67.90;;;;;;5049466;28;19912;-63
2022/06/13 12:19:47;;;;;;;;;;;20.20;66.50;;;;;;5048939;28;19915;-64
2022/06/13 12:22:19;;;;;;;;;;;20.20;66.40;;;;;;5048621;28;19920;-65
2022/06/13 12:24:47;;;;;;;;;;;20.20;67.50;;;;;;5049544;28;19923;-63
2022/06/13 12:27:27;;;;;;;;;;;20.20;67.70;;;;;;5050000;28;21003;-56
2022/06/13 12:30:02;;;;;;;;;;;20.30;65.40;;;;;;5046854;28;19959;-57
2022/06/13 12:32:32;;;;;;;;;;;20.30;66.30;;;;;;5057406;28;19912;-57
2022/06/13 12:35:16;;;;;;;;;;;20.30;67.10;;;;;;5052523;28;20062;-57
2022/06/13 12:37:49;;;;;;;;;;;20.40;66.90;;;;;;5053184;28;19951;-57
2022/06/13 12:40:31;;;;;;;;;;;20.40;67.60;;;;;;5053914;28;19909;-58
2022/06/13 12:43:18;;;;;;;;;;;20.50;68.00;;;;;;5053229;28;19920;-57
2022/06/13 12:45:50;;;;;;;;;;;20.50;67.00;;;;;;5052796;28;19959;-55
2022/06/13 12:48:17;;;;;;;;;;;20.60;65.50;;;;;;5052434;28;19963;-57
2022/06/13 12:50:43;;;;;;;;;;;20.60;64.80;;;;;;5052423;28;20494;-57
2022/06/13 12:53:15;;;;;;;;;;;20.60;65.80;;;;;;5052489;28;19917;-55
2022/06/13 12:56:16;;;;;;;;;;;20.70;66.10;;;;;;5052364;28;19928;-58
2022/06/13 12:58:49;;;;;;;;;;;20.70;64.80;;;;;;4985467;28;20056;-58
2022/06/13 13:01:22;;;;;;;;;;;20.70;65.20;;;;;;4972369;28;19941;-58
2022/06/13 13:03:50;;;;;;;;;;;20.70;66.00;;;;;;4971841;28;19924;-58
2022/06/13 13:06:25;;;;;;;;;;;20.80;66.40;;;;;;4971462;28;19937;-58
2022/06/13 13:08:50;;;;;;;;;;;20.80;66.60;;;;;;4971521;28;19918;-58
2022/06/13 13:11:23;;;;;;;;;;;20.80;65.60;;;;;;4971617;28;20329;-57
2022/06/13 13:13:53;;;;;;;;;;;20.80;66.10;;;;;;4970818;28;19961;-58
2022/06/13 13:16:28;;;;;;;;;;;20.80;64.80;;;;;;4972094;28;19938;-58
2022/06/13 13:18:56;;;;;;;;;;;20.80;64.10;;;;;;4971674;28;19937;-56
2022/06/13 13:21:28;;;;;;;;;;;20.80;63.70;;;;;;4971186;28;19918;-58
2022/06/13 13:24:07;;;;;;;;;;;20.80;64.60;;;;;;4970845;28;19918;-57
2022/06/13 13:26:51;;;;;;;;;;;20.80;65.20;;;;;;4972319;28;20644;-58
2022/06/13 13:29:20;;;;;;;;;;;20.80;65.60;;;;;;4982006;28;19915;-54
2022/06/13 13:31:51;;;;;;;;;;;20.90;65.90;;;;;;4986783;28;19976;-56
2022/06/13 13:34:32;;;;;;;;;;;20.90;64.10;;;;;;5046996;28;20406;-57
2022/06/13 13:37:07;;;;;;;;;;;20.90;63.80;;;;;;5049306;28;19919;-58
2022/06/13 13:39:42;;;;;;;;;;;20.90;64.50;;;;;;5049095;28;19923;-56
2022/06/13 13:42:31;;;;;;;;;;;21.00;64.30;;;;;;5049002;28;20070;-57
2022/06/13 13:45:16;;;;;;;;;;;21.10;65.30;;;;;;5046112;28;19928;-58
2022/06/13 13:47:43;;;;;;;;;;;21.20;64.50;;;;;;5046706;28;19923;-55
2022/06/13 13:50:12;;;;;;;;;;;21.20;63.30;;;;;;5048676;28;20728;-58
2022/06/13 13:52:41;;;;;;;;;;;21.20;63.30;;;;;;5048770;28;19925;-57
2022/06/13 13:55:11;;;;;;;;;;;21.20;63.30;;;;;;5049632;28;19913;-57
2022/06/13 13:57:41;;;;;;;;;;;21.20;62.50;;;;;;5049138;28;20413;-57
2022/06/13 14:00:16;;;;;;;;;;;21.10;62.90;;;;;;5048090;28;19913;-56
2022/06/13 14:03:01;;;;;;;;;;;21.20;62.50;;;;;;5048722;28;19982;-57
2022/06/13 14:05:59;;;;;;;;;;;21.20;62.50;;;;;;5047032;28;19916;-57
2022/06/13 14:08:30;;;;;;;;;;;21.30;62.50;;;;;;4947721;28;19968;-57
2022/06/13 14:10:57;;;;;;;;;;;21.30;63.20;;;;;;4948249;28;20143;-57
2022/06/13 14:13:23;;;;;;;;;;;21.30;63.00;;;;;;4947007;28;19957;-56
2022/06/13 14:15:48;;;;;;;;;;;21.30;63.40;;;;;;4949048;28;19966;-58
2022/06/13 14:18:24;;;;;;;;;;;21.30;63.70;;;;;;4947330;28;20009;-57
2022/06/13 14:20:51;;;;;;;;;;;21.40;64.00;;;;;;4946838;29;19915;-57
2022/06/13 14:23:18;;;;;;;;;;;21.40;63.90;;;;;;4947169;29;19978;-58
2022/06/13 14:25:45;;;;;;;;;;;21.50;62.60;;;;;;4946523;28;19918;-57
2022/06/13 14:28:18;;;;;;;;;;;21.50;61.70;;;;;;4948585;29;19918;-57
2022/06/13 14:31:04;;;;;;;;;;;21.50;61.20;;;;;;4948601;28;19929;-57
2022/06/13 14:36:51;;;;;;;;;;;21.50;61.40;;;;;;4946837;28;20416;-58
2022/06/13 14:39:30;;;;;;;;;;;21.60;61.00;;;;;;4946834;28;19922;-56
2022/06/13 14:42:22;;;;;;;;;;;21.70;61.60;;;;;;4946909;29;19923;-57
2022/06/13 14:44:53;;;;;;;;;;;21.80;61.80;;;;;;4954072;28;20381;-57
2022/06/13 14:47:18;;;;;;;;;;;21.80;61.50;;;;;;4964904;28;19945;-57
2022/06/13 14:49:44;;;;;;;;;;;21.90;61.90;;;;;;4961668;28;19965;-58
2022/06/13 14:52:09;;;;;;;;;;;21.90;61.50;;;;;;4950327;28;20050;-58
2022/06/13 14:54:47;;;;;;;;;;;21.90;62.20;;;;;;4961094;28;20391;-58
2022/06/13 14:57:36;;;;;;;;;;;21.90;60.50;;;;;;4962603;28;19919;-58